sensor_id;sensor_type;location;lat;lon;timestamp;pressure;altitude;pressure_sealevel;temperature;humidity
929;BME280;451;47.988;7.842;2023-02-22T00:00:38;98405.31;;;6.68;74.64
929;BME280;451;47.988;7.842;2023-02-22T00:09:45;98401.91;;;6.85;74.66
929;BME280;451;47.988;7.842;2023-02-22T00:18:49;98392.31;;;6.76;75.04
929;BME280;451;47.988;7.842;2023-02-22T00:27:52;98406.88;;;6.61;74.00
929;BME280;451;47.988;7.842;2023-02-22T00:36:56;98394.47;;;6.63;73.98
929;BME280;451;47.988;7.842;2023-02-22T00:46:03;98372.69;;;6.55;74.44
929;BME280;451;47.988;7.842;2023-02-22T00:55:10;98365.69;;;6.28;74.39
929;BME280;451;47.988;7.842;2023-02-22T01:04:16;98370.41;;;6.15;76.45
929;BME280;451;47.988;7.842;2023-02-22T01:13:21;98365.34;;;6.40;75.28
929;BME280;451;47.988;7.842;2023-02-22T01:22:24;98358.25;;;6.05;77.42
929;BME280;451;47.988;7.842;2023-02-22T01:31:30;98362.94;;;6.02;77.58
929;BME280;451;47.988;7.842;2023-02-22T01:40:35;98336.44;;;5.60;78.91
929;BME280;451;47.988;7.842;2023-02-22T01:49:42;98363.75;;;5.56;79.57
929;BME280;451;47.988;7.842;2023-02-22T01:58:49;98354.72;;;5.41;80.69
929;BME280;451;47.988;7.842;2023-02-22T02:07:54;98350.59;;;5.38;81.15
929;BME280;451;47.988;7.842;2023-02-22T02:16:58;98350.59;;;5.48;82.85
929;BME280;451;47.988;7.842;2023-02-22T02:26:29;98331.97;;;5.33;82.66
929;BME280;451;47.988;7.842;2023-02-22T02:35:48;98342.72;;;5.11;83.02
929;BME280;451;47.988;7.842;2023-02-22T02:44:56;98321.03;;;5.01;83.79
929;BME280;451;47.988;7.842;2023-02-22T02:54:05;98321.88;;;5.01;83.76
929;BME280;451;47.988;7.842;2023-02-22T03:03:22;98314.22;;;4.80;85.44
929;BME280;451;47.988;7.842;2023-02-22T03:12:37;98309.28;;;4.77;84.91
929;BME280;451;47.988;7.842;2023-02-22T03:21:49;98298.31;;;4.93;85.55
929;BME280;451;47.988;7.842;2023-02-22T03:31:00;98292.03;;;4.67;85.10
929;BME280;451;47.988;7.842;2023-02-22T03:40:07;98284.47;;;4.83;85.25
929;BME280;451;47.988;7.842;2023-02-22T03:49:22;98259.69;;;4.60;85.45
929;BME280;451;47.988;7.842;2023-02-22T03:58:29;98285.03;;;4.58;86.36
929;BME280;451;47.988;7.842;2023-02-22T04:07:36;98285.16;;;4.75;85.13
929;BME280;451;47.988;7.842;2023-02-22T04:16:39;98264.75;;;4.52;84.67
929;BME280;451;47.988;7.842;2023-02-22T04:25:46;98281.88;;;4.54;85.19
929;BME280;451;47.988;7.842;2023-02-22T04:34:52;98259.13;;;4.66;85.62
929;BME280;451;47.988;7.842;2023-02-22T04:43:56;98255.56;;;4.57;83.82
929;BME280;451;47.988;7.842;2023-02-22T04:53:01;98252.84;;;4.59;84.41
929;BME280;451;47.988;7.842;2023-02-22T05:02:05;98259.50;;;4.90;83.85
929;BME280;451;47.988;7.842;2023-02-22T05:11:08;98259.50;;;4.90;84.32
929;BME280;451;47.988;7.842;2023-02-22T05:20:21;98255.41;;;4.97;84.73
929;BME280;451;47.988;7.842;2023-02-22T05:29:24;98257.91;;;4.79;84.80
929;BME280;451;47.988;7.842;2023-02-22T05:38:29;98247.59;;;4.78;84.09
929;BME280;451;47.988;7.842;2023-02-22T05:47:32;98245.41;;;4.83;84.10
929;BME280;451;47.988;7.842;2023-02-22T05:56:36;98255.56;;;4.86;83.93
929;BME280;451;47.988;7.842;2023-02-22T06:05:41;98222.81;;;4.74;85.20
929;BME280;451;47.988;7.842;2023-02-22T06:14:47;98248.81;;;4.93;84.51
929;BME280;451;47.988;7.842;2023-02-22T06:23:50;98262.91;;;5.00;84.55
929;BME280;451;47.988;7.842;2023-02-22T06:32:54;98256.66;;;4.93;85.20
929;BME280;451;47.988;7.842;2023-02-22T06:41:58;98272.78;;;5.06;84.01
929;BME280;451;47.988;7.842;2023-02-22T06:51:03;98276.91;;;4.99;85.50
929;BME280;451;47.988;7.842;2023-02-22T07:00:07;98288.22;;;5.27;85.45
929;BME280;451;47.988;7.842;2023-02-22T07:09:12;98301.50;;;5.34;82.92
929;BME280;451;47.988;7.842;2023-02-22T07:18:15;98282.16;;;5.73;81.02
929;BME280;451;47.988;7.842;2023-02-22T07:27:19;98282.75;;;5.94;80.49
929;BME280;451;47.988;7.842;2023-02-22T07:36:23;98278.28;;;6.32;77.58
929;BME280;451;47.988;7.842;2023-02-22T07:45:28;98268.00;;;6.66;75.94
929;BME280;451;47.988;7.842;2023-02-22T07:54:32;98260.97;;;6.66;76.63
929;BME280;451;47.988;7.842;2023-02-22T08:03:36;98259.25;;;7.86;72.62
929;BME280;451;47.988;7.842;2023-02-22T08:12:39;98249.16;;;8.07;69.84
929;BME280;451;47.988;7.842;2023-02-22T08:21:43;98253.69;;;8.39;69.65
929;BME280;451;47.988;7.842;2023-02-22T08:30:47;98258.28;;;8.54;68.89
929;BME280;451;47.988;7.842;2023-02-22T08:39:53;98250.94;;;8.73;68.03
929;BME280;451;47.988;7.842;2023-02-22T08:48:56;98253.31;;;9.40;65.46
929;BME280;451;47.988;7.842;2023-02-22T08:58:02;98239.03;;;9.89;64.46
929;BME280;451;47.988;7.842;2023-02-22T09:07:06;98252.91;;;10.82;61.01
929;BME280;451;47.988;7.842;2023-02-22T09:16:11;98241.28;;;11.14;57.30
929;BME280;451;47.988;7.842;2023-02-22T09:25:15;98213.41;;;11.93;56.65
929;BME280;451;47.988;7.842;2023-02-22T09:34:22;98215.19;;;13.42;54.97
929;BME280;451;47.988;7.842;2023-02-22T09:43:36;98230.59;;;13.79;60.30
929;BME280;451;47.988;7.842;2023-02-22T09:52:51;98220.31;;;13.97;70.21
929;BME280;451;47.988;7.842;2023-02-22T10:02:01;98182.88;;;13.94;70.30
929;BME280;451;47.988;7.842;2023-02-22T10:11:14;98220.53;;;14.02;71.27
929;BME280;451;47.988;7.842;2023-02-22T10:20:36;98209.38;;;14.13;69.97
929;BME280;451;47.988;7.842;2023-02-22T10:29:46;98206.44;;;14.56;68.12
929;BME280;451;47.988;7.842;2023-02-22T10:38:54;98193.84;;;14.84;67.23
929;BME280;451;47.988;7.842;2023-02-22T10:48:02;98189.34;;;14.45;67.12
929;BME280;451;47.988;7.842;2023-02-22T10:57:10;98184.91;;;14.72;67.75
929;BME280;451;47.988;7.842;2023-02-22T11:06:19;98190.97;;;15.19;65.79
929;BME280;451;47.988;7.842;2023-02-22T11:15:27;98176.88;;;15.38;64.72
929;BME280;451;47.988;7.842;2023-02-22T11:24:32;98174.47;;;15.88;62.65
929;BME280;451;47.988;7.842;2023-02-22T11:33:36;98165.09;;;15.92;61.43
929;BME280;451;47.988;7.842;2023-02-22T11:42:41;98152.25;;;15.89;60.72
929;BME280;451;47.988;7.842;2023-02-22T11:52:01;98159.72;;;16.05;60.77
929;BME280;451;47.988;7.842;2023-02-22T12:01:15;98146.72;;;15.97;61.50
929;BME280;451;47.988;7.842;2023-02-22T12:10:29;98148.13;;;15.48;62.59
929;BME280;451;47.988;7.842;2023-02-22T12:19:39;98138.41;;;15.29;63.37
929;BME280;451;47.988;7.842;2023-02-22T12:28:50;98139.31;;;15.67;62.04
929;BME280;451;47.988;7.842;2023-02-22T12:38:05;98150.63;;;15.30;63.84
929;BME280;451;47.988;7.842;2023-02-22T12:47:15;98160.88;;;15.78;62.49
929;BME280;451;47.988;7.842;2023-02-22T12:56:24;98163.78;;;15.50;63.36
929;BME280;451;47.988;7.842;2023-02-22T13:05:33;98155.28;;;15.99;62.64
929;BME280;451;47.988;7.842;2023-02-22T13:14:48;98152.84;;;15.91;62.46
929;BME280;451;47.988;7.842;2023-02-22T13:23:57;98142.81;;;16.31;61.16
929;BME280;451;47.988;7.842;2023-02-22T13:33:19;98153.47;;;16.24;61.29
929;BME280;451;47.988;7.842;2023-02-22T13:42:39;98145.25;;;15.56;64.55
929;BME280;451;47.988;7.842;2023-02-22T13:51:48;98117.09;;;15.62;63.18
929;BME280;451;47.988;7.842;2023-02-22T14:00:54;98145.50;;;15.42;65.81
929;BME280;451;47.988;7.842;2023-02-22T14:09:58;98131.16;;;15.49;65.61
929;BME280;451;47.988;7.842;2023-02-22T14:19:04;98108.94;;;15.63;64.96
929;BME280;451;47.988;7.842;2023-02-22T14:28:38;98140.31;;;15.73;64.49
929;BME280;451;47.988;7.842;2023-02-22T14:37:48;98131.88;;;15.83;64.80
929;BME280;451;47.988;7.842;2023-02-22T14:46:59;98113.31;;;15.83;63.54
929;BME280;451;47.988;7.842;2023-02-22T14:56:08;98134.53;;;15.83;64.16
929;BME280;451;47.988;7.842;2023-02-22T15:05:18;98153.59;;;15.66;65.04
929;BME280;451;47.988;7.842;2023-02-22T15:14:24;98147.69;;;15.51;66.29
929;BME280;451;47.988;7.842;2023-02-22T15:23:38;98158.75;;;15.35;68.24
929;BME280;451;47.988;7.842;2023-02-22T15:32:43;98153.47;;;15.22;69.03
929;BME280;451;47.988;7.842;2023-02-22T15:41:47;98157.94;;;15.28;69.22
929;BME280;451;47.988;7.842;2023-02-22T15:51:12;98150.84;;;15.15;70.27
929;BME280;451;47.988;7.842;2023-02-22T16:00:21;98142.47;;;14.06;75.68
929;BME280;451;47.988;7.842;2023-02-22T16:09:25;98176.34;;;13.83;79.29
929;BME280;451;47.988;7.842;2023-02-22T16:18:33;98187.50;;;13.72;80.39
929;BME280;451;47.988;7.842;2023-02-22T16:27:39;98187.75;;;13.43;83.51
929;BME280;451;47.988;7.842;2023-02-22T16:36:49;98179.44;;;13.46;84.14
929;BME280;451;47.988;7.842;2023-02-22T16:45:52;98185.13;;;13.49;84.35
929;BME280;451;47.988;7.842;2023-02-22T16:54:57;98186.22;;;13.61;83.50
929;BME280;451;47.988;7.842;2023-02-22T17:04:00;98043.97;;;12.70;83.10
929;BME280;451;47.988;7.842;2023-02-22T17:13:05;98186.88;;;13.29;86.06
929;BME280;451;47.988;7.842;2023-02-22T17:22:15;98125.69;;;12.91;84.33
929;BME280;451;47.988;7.842;2023-02-22T17:31:22;98211.59;;;13.21;89.24
929;BME280;451;47.988;7.842;2023-02-22T17:40:27;98224.16;;;13.19;92.78
929;BME280;451;47.988;7.842;2023-02-22T17:49:31;98223.06;;;13.35;92.63
929;BME280;451;47.988;7.842;2023-02-22T17:58:35;98237.84;;;13.29;96.23
929;BME280;451;47.988;7.842;2023-02-22T18:07:39;98238.63;;;13.02;100.00
929;BME280;451;47.988;7.842;2023-02-22T18:16:45;98229.16;;;12.86;100.00
929;BME280;451;47.988;7.842;2023-02-22T18:25:51;98229.88;;;12.74;100.00
929;BME280;451;47.988;7.842;2023-02-22T18:34:54;98218.13;;;12.34;100.00
929;BME280;451;47.988;7.842;2023-02-22T18:43:58;98221.94;;;12.10;100.00
929;BME280;451;47.988;7.842;2023-02-22T18:53:01;98213.84;;;12.11;100.00
929;BME280;451;47.988;7.842;2023-02-22T19:02:10;98210.19;;;12.12;100.00
929;BME280;451;47.988;7.842;2023-02-22T19:11:16;98168.72;;;11.49;100.00
929;BME280;451;47.988;7.842;2023-02-22T19:20:21;98213.38;;;12.08;100.00
929;BME280;451;47.988;7.842;2023-02-22T19:29:26;98208.09;;;12.08;100.00
929;BME280;451;47.988;7.842;2023-02-22T19:38:33;98123.97;;;11.20;100.00
929;BME280;451;47.988;7.842;2023-02-22T19:47:36;98208.06;;;11.72;100.00
929;BME280;451;47.988;7.842;2023-02-22T19:56:40;98210.78;;;11.64;100.00
929;BME280;451;47.988;7.842;2023-02-22T20:05:43;98182.66;;;11.50;100.00
929;BME280;451;47.988;7.842;2023-02-22T20:14:48;98214.34;;;11.56;100.00
929;BME280;451;47.988;7.842;2023-02-22T20:23:51;98184.59;;;11.41;100.00
929;BME280;451;47.988;7.842;2023-02-22T20:32:59;98226.63;;;11.79;100.00
929;BME280;451;47.988;7.842;2023-02-22T20:42:02;98180.84;;;11.65;100.00
929;BME280;451;47.988;7.842;2023-02-22T20:51:10;98216.00;;;12.08;100.00
929;BME280;451;47.988;7.842;2023-02-22T21:00:14;98226.03;;;11.98;100.00
929;BME280;451;47.988;7.842;2023-02-22T21:09:20;98208.00;;;12.16;100.00
929;BME280;451;47.988;7.842;2023-02-22T21:18:23;98217.25;;;11.91;100.00
929;BME280;451;47.988;7.842;2023-02-22T21:27:27;98204.16;;;11.83;100.00
929;BME280;451;47.988;7.842;2023-02-22T21:36:30;98052.88;;;10.99;100.00
929;BME280;451;47.988;7.842;2023-02-22T21:45:35;98200.31;;;12.00;100.00
929;BME280;451;47.988;7.842;2023-02-22T21:54:38;98203.81;;;11.86;100.00
929;BME280;451;47.988;7.842;2023-02-22T22:03:44;98203.50;;;11.95;100.00
929;BME280;451;47.988;7.842;2023-02-22T22:12:47;98210.25;;;11.98;100.00
929;BME280;451;47.988;7.842;2023-02-22T22:21:52;98211.69;;;11.71;100.00
929;BME280;451;47.988;7.842;2023-02-22T22:30:56;98193.09;;;11.72;100.00
929;BME280;451;47.988;7.842;2023-02-22T22:40:03;98119.59;;;11.27;100.00
929;BME280;451;47.988;7.842;2023-02-22T22:49:06;98188.00;;;11.56;100.00
929;BME280;451;47.988;7.842;2023-02-22T22:58:11;98152.63;;;11.44;100.00
929;BME280;451;47.988;7.842;2023-02-22T23:07:14;98171.84;;;11.59;100.00
929;BME280;451;47.988;7.842;2023-02-22T23:16:19;98182.47;;;11.81;100.00
929;BME280;451;47.988;7.842;2023-02-22T23:25:22;98183.34;;;11.88;100.00
929;BME280;451;47.988;7.842;2023-02-22T23:34:27;98164.03;;;11.81;100.00
929;BME280;451;47.988;7.842;2023-02-22T23:43:30;98168.84;;;11.62;100.00
929;BME280;451;47.988;7.842;2023-02-22T23:52:35;98192.31;;;12.08;100.00
